Time;durP1;ratioP1;P1;durP2;ratioP2;P2;SDS_P1;SDS_P2;PMS_P1;PMS_P2;Temp;Humidity;BMP_temperature;BMP_pressure;BME280_temperature;BME280_humidity;BME280_pressure;Samples;Min_cycle;Max_cycle;Signal;HPM_P1;HPM_P2
2022/01/09 09:14:40;;;;;;;92.43;38.80;;;;;;;;;;5106415;27;21264;-57
2022/01/09 09:17:06;;;;;;;66.63;29.88;;;;;;;;;;5108305;28;20027;-65
2022/01/09 09:19:33;;;;;;;68.18;32.47;;;;;;;;;;5108209;28;20019;-63
2022/01/09 09:21:59;;;;;;;69.93;34.50;;;;;;;;;;5108346;28;20599;-63
2022/01/09 09:24:25;;;;;;;118.03;52.53;;;;;;;;;;5106959;28;20031;-64
2022/01/09 09:26:51;;;;;;;127.03;58.95;;;;;;;;;;5108815;28;20020;-63
2022/01/09 09:29:18;;;;;;;120.70;57.85;;;;;;;;;;5108917;28;20391;-62
2022/01/09 09:31:44;;;;;;;129.30;61.20;;;;;;;;;;5108323;28;20046;-61
2022/01/09 09:34:10;;;;;;;99.90;47.38;;;;;;;;;;5108200;28;20036;-60
2022/01/09 09:36:36;;;;;;;84.50;43.55;;;;;;;;;;5106842;28;20024;-61
2022/01/09 09:39:08;;;;;;;96.22;47.88;;;;;;;;;;5108459;28;20032;-62
2022/01/09 09:41:34;;;;;;;76.70;37.65;;;;;;;;;;5107633;28;20410;-62
2022/01/09 09:44:01;;;;;;;72.32;35.47;;;;;;;;;;5106913;28;20525;-63
2022/01/09 09:46:27;;;;;;;69.88;33.50;;;;;;;;;;5108564;28;20055;-61
2022/01/09 09:48:54;;;;;;;68.63;33.67;;;;;;;;;;5108289;28;20432;-61
2022/01/09 09:51:24;;;;;;;53.83;28.85;;;;;;;;;;5094315;28;20522;-62
2022/01/09 09:53:50;;;;;;;56.10;29.40;;;;;;;;;;5087951;28;20075;-62
2022/01/09 09:56:16;;;;;;;57.50;29.27;;;;;;;;;;5088039;28;20460;-63
2022/01/09 09:58:42;;;;;;;54.20;28.77;;;;;;;;;;5088288;28;20027;-62
2022/01/09 10:01:22;;;;;;;55.25;28.30;;;;;;;;;;5087577;28;20156;-62
2022/01/09 10:03:53;;;;;;;64.93;34.17;;;;;;;;;;5104406;28;20022;-61
2022/01/09 10:06:45;;;;;;;75.53;38.55;;;;;;;;;;5107411;28;20024;-61
2022/01/09 10:09:12;;;;;;;54.35;26.70;;;;;;;;;;5107609;28;20028;-61
2022/01/09 10:12:03;;;;;;;71.53;35.15;;;;;;;;;;5107587;28;20034;-61
2022/01/09 10:14:48;;;;;;;65.55;34.33;;;;;;;;;;5105814;28;20044;-61
2022/01/09 10:17:19;;;;;;;57.70;32.20;;;;;;;;;;5107629;28;20162;-60
2022/01/09 10:19:54;;;;;;;62.60;33.35;;;;;;;;;;5107570;28;20020;-62
2022/01/09 10:22:24;;;;;;;65.65;32.85;;;;;;;;;;5107313;28;20116;-62
2022/01/09 10:25:15;;;;;;;60.80;31.25;;;;;;;;;;5099097;28;20479;-60
2022/01/09 10:31:06;;;;;;;56.80;31.30;;;;;;;;;;5087658;28;20063;-60
2022/01/09 10:36:37;;;;;;;52.13;28.52;;;;;;;;;;5084468;28;20039;-59
2022/01/09 10:39:07;;;;;;;53.72;28.65;;;;;;;;;;5093742;28;20024;-59
2022/01/09 10:41:46;;;;;;;46.83;27.40;;;;;;;;;;5093381;28;20503;-62
2022/01/09 10:44:20;;;;;;;49.75;27.48;;;;;;;;;;5093345;28;20063;-59
2022/01/09 10:46:53;;;;;;;52.53;27.40;;;;;;;;;;5093608;28;20020;-59
2022/01/09 10:49:19;;;;;;;50.00;27.42;;;;;;;;;;5093466;28;20495;-60
2022/01/09 10:51:45;;;;;;;49.92;27.70;;;;;;;;;;5092612;28;20036;-61
2022/01/09 10:54:27;;;;;;;45.40;26.17;;;;;;;;;;5092123;28;20032;-59
2022/01/09 10:57:14;;;;;;;48.00;26.20;;;;;;;;;;5093138;28;20145;-59
2022/01/09 11:00:17;;;;;;;46.45;24.88;;;;;;;;;;5093486;28;20391;-61
2022/01/09 11:02:56;;;;;;;38.55;20.90;;;;;;;;;;5083633;28;20119;-60
2022/01/09 11:05:22;;;;;;;43.17;23.23;;;;;;;;;;5086096;28;20016;-60
2022/01/09 11:07:49;;;;;;;49.42;24.73;;;;;;;;;;5093321;28;20024;-60
2022/01/09 11:10:17;;;;;;;36.22;20.35;;;;;;;;;;5093467;28;20052;-61
2022/01/09 11:12:48;;;;;;;37.28;20.27;;;;;;;;;;5092680;28;20491;-60
2022/01/09 11:15:18;;;;;;;37.42;20.95;;;;;;;;;;5093248;28;20044;-60
2022/01/09 11:17:46;;;;;;;39.03;20.70;;;;;;;;;;5093679;28;20016;-62
2022/01/09 11:20:12;;;;;;;42.13;23.23;;;;;;;;;;5092951;28;20032;-62
2022/01/09 11:22:38;;;;;;;37.70;21.00;;;;;;;;;;5091852;28;20089;-61
2022/01/09 11:25:12;;;;;;;41.47;23.30;;;;;;;;;;5088070;28;20016;-59
2022/01/09 11:28:02;;;;;;;43.75;24.15;;;;;;;;;;5089137;28;20032;-59
2022/01/09 11:30:51;;;;;;;44.05;24.27;;;;;;;;;;5091934;28;20039;-59
2022/01/09 11:33:20;;;;;;;43.53;23.65;;;;;;;;;;5091577;28;20036;-61
2022/01/09 11:36:05;;;;;;;45.67;25.98;;;;;;;;;;5090485;28;20122;-60
2022/01/09 11:38:31;;;;;;;47.70;24.95;;;;;;;;;;5092405;28;20053;-60
2022/01/09 11:41:15;;;;;;;43.83;25.27;;;;;;;;;;5092309;28;20028;-61
2022/01/09 11:43:51;;;;;;;42.92;24.48;;;;;;;;;;5092481;28;20115;-62
2022/01/09 11:46:17;;;;;;;44.95;25.73;;;;;;;;;;5092614;28;20371;-60
2022/01/09 11:49:06;;;;;;;47.05;25.60;;;;;;;;;;5092107;28;20648;-60
2022/01/09 11:51:34;;;;;;;46.72;25.58;;;;;;;;;;5091869;28;20078;-61
2022/01/09 11:54:12;;;;;;;51.70;26.92;;;;;;;;;;5092247;28;20490;-60
2022/01/09 11:56:45;;;;;;;49.72;26.50;;;;;;;;;;5092044;28;20035;-60
2022/01/09 11:59:30;;;;;;;51.08;27.50;;;;;;;;;;5091952;28;20035;-60
2022/01/09 12:01:59;;;;;;;46.08;25.50;;;;;;;;;;5091913;28;20036;-60
2022/01/09 12:04:32;;;;;;;45.67;24.45;;;;;;;;;;5091990;28;20383;-59
2022/01/09 12:07:03;;;;;;;46.97;25.33;;;;;;;;;;5092094;28;20020;-60
2022/01/09 12:09:32;;;;;;;53.78;28.10;;;;;;;;;;5091656;28;20032;-59
2022/01/09 12:12:05;;;;;;;50.53;28.45;;;;;;;;;;5090929;28;20062;-60
2022/01/09 12:17:21;;;;;;;57.78;31.88;;;;;;;;;;5071891;28;20028;-60
2022/01/09 12:20:05;;;;;;;65.55;33.13;;;;;;;;;;5071273;28;20024;-59
2022/01/09 12:22:48;;;;;;;60.97;30.70;;;;;;;;;;5087967;28;20028;-60
2022/01/09 12:25:14;;;;;;;;;;;;;;;;;;5091460;28;20028;-60
2022/01/09 12:27:48;;;;;;;55.72;29.23;;;;;;;;;;5091359;28;20691;-60
2022/01/09 12:30:41;;;;;;;62.88;30.38;;;;;;;;;;5091891;28;20027;-60
2022/01/09 12:33:28;;;;;;;58.47;29.60;;;;;;;;;;5090517;28;20475;-60
2022/01/09 12:35:57;;;;;;;52.25;27.35;;;;;;;;;;5090214;28;20442;-60
2022/01/09 12:38:24;;;;;;;57.63;28.67;;;;;;;;;;5090669;28;20094;-60
2022/01/09 12:41:01;;;;;;;54.08;28.00;;;;;;;;;;5091290;28;20041;-60
2022/01/09 12:43:28;;;;;;;53.63;27.05;;;;;;;;;;5090218;28;20036;-59
2022/01/09 12:45:54;;;;;;;59.17;28.70;;;;;;;;;;5079349;28;20020;-60
2022/01/09 12:48:28;;;;;;;56.47;27.27;;;;;;;;;;5090331;28;20494;-60
2022/01/09 12:50:55;;;;;;;62.45;30.90;;;;;;;;;;5091348;28;20032;-59
2022/01/09 12:53:23;;;;;;;49.63;24.50;;;;;;;;;;5091438;28;20028;-60
2022/01/09 12:56:05;;;;;;;48.03;24.15;;;;;;;;;;5091563;28;20020;-60
2022/01/09 12:58:31;;;;;;;50.72;23.48;;;;;;;;;;5070601;28;20021;-60
2022/01/09 13:00:59;;;;;;;52.88;25.17;;;;;;;;;;5070498;28;20094;-60
2022/01/09 13:03:26;;;;;;;50.22;24.88;;;;;;;;;;5070790;28;20430;-60
2022/01/09 13:05:57;;;;;;;53.25;25.65;;;;;;;;;;5070774;28;20490;-60
2022/01/09 13:08:23;;;;;;;62.25;29.35;;;;;;;;;;5070766;28;20020;-60
2022/01/09 13:10:59;;;;;;;55.58;25.75;;;;;;;;;;5071009;28;20104;-60
2022/01/09 13:13:26;;;;;;;51.38;24.95;;;;;;;;;;5070663;28;20067;-60
2022/01/09 13:15:53;;;;;;;47.28;23.38;;;;;;;;;;5070676;28;20032;-60
2022/01/09 13:18:34;;;;;;;47.42;23.23;;;;;;;;;;5071050;28;20034;-60
2022/01/09 13:21:18;;;;;;;45.33;22.95;;;;;;;;;;5070489;28;20056;-60
2022/01/09 13:23:59;;;;;;;48.05;23.65;;;;;;;;;;5070820;28;20025;-60
2022/01/09 13:26:27;;;;;;;45.55;22.63;;;;;;;;;;5074725;28;20020;-60
2022/01/09 13:28:54;;;;;;;46.95;23.92;;;;;;;;;;5091008;28;20118;-60
2022/01/09 13:31:22;;;;;;;41.75;21.23;;;;;;;;;;5090588;28;20499;-60
2022/01/09 13:34:04;;;;;;;40.33;22.02;;;;;;;;;;5090634;28;20498;-60
2022/01/09 13:36:37;;;;;;;45.45;23.10;;;;;;;;;;5091188;28;20012;-61
2022/01/09 13:39:08;;;;;;;50.55;23.95;;;;;;;;;;5091030;28;20028;-59
2022/01/09 13:41:36;;;;;;;44.25;22.35;;;;;;;;;;5090619;28;20031;-61
2022/01/09 13:44:02;;;;;;;42.78;22.30;;;;;;;;;;5090872;28;20877;-60
2022/01/09 13:46:28;;;;;;;51.08;26.70;;;;;;;;;;5091099;28;20367;-60
2022/01/09 13:48:54;;;;;;;44.70;23.50;;;;;;;;;;5090884;28;20032;-61
2022/01/09 13:51:40;;;;;;;43.03;22.80;;;;;;;;;;5090890;28;20021;-59
2022/01/09 13:54:07;;;;;;;52.10;25.98;;;;;;;;;;5090540;28;20032;-59
2022/01/09 13:56:34;;;;;;;45.67;23.25;;;;;;;;;;5090828;28;20035;-59
2022/01/09 13:59:00;;;;;;;45.47;22.85;;;;;;;;;;5090847;28;20379;-61
2022/01/09 14:01:41;;;;;;;47.40;23.48;;;;;;;;;;5093851;28;20031;-60
2022/01/09 14:04:13;;;;;;;55.63;27.52;;;;;;;;;;5094302;28;20064;-60
2022/01/09 14:06:39;;;;;;;51.10;25.98;;;;;;;;;;5094261;28;20024;-60
2022/01/09 14:09:07;;;;;;;75.30;37.00;;;;;;;;;;5094459;28;20085;-60
2022/01/09 14:11:33;;;;;;;65.18;31.80;;;;;;;;;;5094136;28;20012;-60
2022/01/09 14:13:59;;;;;;;59.63;28.27;;;;;;;;;;5093907;28;20056;-60
2022/01/09 14:16:32;;;;;;;57.78;28.70;;;;;;;;;;5093919;28;20092;-60
2022/01/09 14:19:00;;;;;;;67.47;30.65;;;;;;;;;;5093947;28;20122;-60
2022/01/09 14:21:26;;;;;;;73.13;34.22;;;;;;;;;;5092894;28;20028;-60
2022/01/09 14:23:52;;;;;;;65.18;32.10;;;;;;;;;;5093895;28;20145;-61
2022/01/09 14:26:23;;;;;;;60.47;30.15;;;;;;;;;;5093914;28;20085;-60
2022/01/09 14:28:50;;;;;;;60.03;29.50;;;;;;;;;;5093850;28;20025;-60
2022/01/09 14:31:18;;;;;;;61.65;32.63;;;;;;;;;;5093741;28;20058;-60
2022/01/09 14:33:48;;;;;;;63.63;31.77;;;;;;;;;;5093558;28;20036;-61
2022/01/09 14:36:15;;;;;;;46.58;24.75;;;;;;;;;;5093826;28;20387;-61
2022/01/09 14:38:51;;;;;;;45.70;23.13;;;;;;;;;;5093894;28;20028;-61
2022/01/09 14:41:17;;;;;;;48.95;24.17;;;;;;;;;;5092175;28;20047;-60
2022/01/09 14:43:44;;;;;;;53.53;26.92;;;;;;;;;;5092097;28;20113;-59
2022/01/09 14:46:10;;;;;;;53.97;27.40;;;;;;;;;;5092370;28;20502;-59
2022/01/09 14:48:39;;;;;;;55.85;28.30;;;;;;;;;;5092945;28;20434;-61
2022/01/09 14:51:09;;;;;;;56.15;29.17;;;;;;;;;;5093238;28;20020;-61
2022/01/09 14:53:36;;;;;;;54.53;27.75;;;;;;;;;;5092971;28;20042;-59
2022/01/09 14:56:02;;;;;;;54.75;27.95;;;;;;;;;;5093032;28;20020;-60
2022/01/09 14:58:28;;;;;;;49.97;25.92;;;;;;;;;;5090455;28;20043;-60
2022/01/09 15:00:55;;;;;;;49.67;27.15;;;;;;;;;;5089121;28;20047;-60
2022/01/09 15:03:21;;;;;;;52.58;27.08;;;;;;;;;;5093221;28;20442;-58
2022/01/09 15:05:48;;;;;;;44.22;24.50;;;;;;;;;;5092639;28;20012;-60
2022/01/09 15:08:14;;;;;;;50.80;26.55;;;;;;;;;;5092930;28;20016;-60
2022/01/09 15:10:41;;;;;;;50.65;26.83;;;;;;;;;;5092543;28;20024;-59
2022/01/09 15:13:08;;;;;;;61.30;29.60;;;;;;;;;;5092221;28;20056;-60
2022/01/09 15:15:34;;;;;;;58.53;28.33;;;;;;;;;;5092885;28;20116;-60
2022/01/09 15:18:01;;;;;;;62.67;30.65;;;;;;;;;;5092003;28;20024;-61
2022/01/09 15:20:31;;;;;;;60.33;28.70;;;;;;;;;;5092578;28;20031;-63
2022/01/09 15:23:03;;;;;;;65.50;30.88;;;;;;;;;;5092819;28;20028;-61
2022/01/09 15:25:29;;;;;;;61.78;30.75;;;;;;;;;;5092774;28;20028;-62
2022/01/09 15:27:55;;;;;;;73.32;33.63;;;;;;;;;;5092778;28;20032;-60
2022/01/09 15:30:21;;;;;;;73.10;32.72;;;;;;;;;;5092882;28;20111;-61
2022/01/09 15:32:49;;;;;;;63.30;29.17;;;;;;;;;;5086368;28;20035;-62
2022/01/09 15:35:15;;;;;;;65.25;30.63;;;;;;;;;;5075499;28;20937;-63
2022/01/09 15:37:41;;;;;;;65.60;29.35;;;;;;;;;;5072457;28;20078;-61
2022/01/09 15:40:08;;;;;;;77.70;34.08;;;;;;;;;;5072668;28;20029;-63
2022/01/09 15:42:34;;;;;;;76.07;35.15;;;;;;;;;;5072371;28;20037;-61
2022/01/09 15:45:02;;;;;;;79.80;35.05;;;;;;;;;;5072298;28;20492;-61
2022/01/09 15:47:28;;;;;;;75.25;31.35;;;;;;;;;;5072186;28;20039;-60
2022/01/09 15:49:55;;;;;;;79.15;31.90;;;;;;;;;;5086412;28;20032;-60
2022/01/09 15:52:22;;;;;;;83.78;36.65;;;;;;;;;;5092275;28;20379;-61
2022/01/09 15:54:48;;;;;;;81.57;37.00;;;;;;;;;;5092264;28;20039;-60
2022/01/09 15:57:14;;;;;;;68.72;31.42;;;;;;;;;;5091926;28;20039;-60
2022/01/09 15:59:40;;;;;;;79.68;35.40;;;;;;;;;;5091869;28;20113;-59
2022/01/09 16:02:06;;;;;;;67.57;32.67;;;;;;;;;;5090449;28;20027;-60
2022/01/09 16:04:32;;;;;;;61.67;27.13;;;;;;;;;;5091585;28;20020;-61
2022/01/09 16:06:59;;;;;;;59.67;27.88;;;;;;;;;;5091670;28;20476;-59
2022/01/09 16:09:25;;;;;;;65.78;30.55;;;;;;;;;;5091751;28;20486;-61
2022/01/09 16:11:57;;;;;;;65.60;29.40;;;;;;;;;;5089026;28;20016;-62
2022/01/09 16:14:23;;;;;;;58.70;25.58;;;;;;;;;;5091445;28;20048;-61
2022/01/09 16:16:51;;;;;;;64.95;30.13;;;;;;;;;;5091472;28;20036;-62
2022/01/09 16:19:17;;;;;;;70.00;31.38;;;;;;;;;;5091549;28;20386;-63
2022/01/09 16:21:43;;;;;;;65.65;29.63;;;;;;;;;;5091225;28;20167;-60
2022/01/09 16:24:10;;;;;;;62.42;29.42;;;;;;;;;;5091111;28;20115;-62
2022/01/09 16:26:37;;;;;;;57.95;27.90;;;;;;;;;;5091459;28;20020;-61
2022/01/09 16:29:03;;;;;;;64.35;29.27;;;;;;;;;;5091120;28;20026;-60
2022/01/09 16:31:29;;;;;;;62.90;29.48;;;;;;;;;;5091381;28;20099;-61
2022/01/09 16:33:57;;;;;;;69.30;32.40;;;;;;;;;;5091108;28;20043;-65
2022/01/09 16:36:24;;;;;;;66.85;31.85;;;;;;;;;;5090737;28;20054;-62
2022/01/09 16:38:50;;;;;;;71.70;31.80;;;;;;;;;;5088159;28;20054;-60
2022/01/09 16:41:17;;;;;;;72.38;32.75;;;;;;;;;;5088708;28;20051;-64
2022/01/09 16:43:44;;;;;;;74.13;32.90;;;;;;;;;;5090947;28;20118;-62
2022/01/09 16:46:10;;;;;;;72.50;32.67;;;;;;;;;;5091031;28;20027;-62
2022/01/09 16:48:37;;;;;;;61.20;28.42;;;;;;;;;;5090626;28;20065;-62
2022/01/09 16:51:05;;;;;;;61.53;27.30;;;;;;;;;;5091105;28;20047;-62
2022/01/09 16:53:36;;;;;;;69.38;30.17;;;;;;;;;;5090912;28;20071;-62
2022/01/09 16:56:03;;;;;;;75.70;32.83;;;;;;;;;;5088688;28;20027;-61
2022/01/09 16:58:29;;;;;;;81.00;34.85;;;;;;;;;;5090126;28;20475;-61
2022/01/09 17:00:55;;;;;;;87.97;38.38;;;;;;;;;;5089872;28;20292;-63
2022/01/09 17:03:21;;;;;;;86.88;38.80;;;;;;;;;;5089807;28;20396;-62
2022/01/09 17:05:47;;;;;;;91.20;42.92;;;;;;;;;;5090624;28;20020;-62
2022/01/09 17:08:14;;;;;;;79.97;35.33;;;;;;;;;;5090613;28;20095;-62
2022/01/09 17:10:40;;;;;;;91.95;41.40;;;;;;;;;;5090612;28;20544;-59
2022/01/09 17:13:06;;;;;;;83.65;36.97;;;;;;;;;;5090745;28;20048;-60
2022/01/09 17:15:32;;;;;;;80.47;37.95;;;;;;;;;;5090887;28;20043;-60
2022/01/09 17:17:58;;;;;;;84.28;36.20;;;;;;;;;;5090773;28;20016;-60
2022/01/09 17:20:25;;;;;;;78.00;35.00;;;;;;;;;;5090537;28;20561;-60
2022/01/09 17:22:51;;;;;;;85.55;35.03;;;;;;;;;;5090497;28;20028;-58
2022/01/09 17:25:17;;;;;;;77.60;32.58;;;;;;;;;;5090484;28;20024;-58
2022/01/09 17:27:44;;;;;;;72.00;30.58;;;;;;;;;;5090040;28;20383;-62
2022/01/09 17:30:10;;;;;;;68.68;28.25;;;;;;;;;;5090338;28;20051;-60
2022/01/09 17:32:37;;;;;;;66.43;28.77;;;;;;;;;;5090285;28;20016;-60
2022/01/09 17:35:04;;;;;;;64.90;28.73;;;;;;;;;;5091912;28;20445;-59
2022/01/09 17:37:30;;;;;;;70.50;29.40;;;;;;;;;;5094362;28;20049;-62
2022/01/09 17:39:59;;;;;;;74.80;32.40;;;;;;;;;;5094650;28;20099;-60
2022/01/09 17:42:25;;;;;;;74.85;34.38;;;;;;;;;;5094545;28;20094;-59
2022/01/09 17:44:51;;;;;;;74.88;33.75;;;;;;;;;;5093088;28;20024;-62
2022/01/09 17:47:17;;;;;;;82.30;36.28;;;;;;;;;;5093783;28;20016;-59
2022/01/09 17:49:44;;;;;;;75.30;34.15;;;;;;;;;;5094643;28;20066;-62
2022/01/09 17:52:10;;;;;;;63.08;27.80;;;;;;;;;;5092988;28;20027;-62
2022/01/09 17:54:37;;;;;;;71.65;29.95;;;;;;;;;;5093341;28;20085;-62
2022/01/09 17:57:03;;;;;;;71.75;31.00;;;;;;;;;;5092624;28;20032;-61
2022/01/09 17:59:32;;;;;;;73.88;31.52;;;;;;;;;;5093126;28;20031;-60
2022/01/09 18:01:58;;;;;;;73.35;33.15;;;;;;;;;;5093194;28;20020;-60
2022/01/09 18:04:24;;;;;;;76.55;32.92;;;;;;;;;;5093342;28;20020;-60
2022/01/09 18:06:52;;;;;;;66.65;31.00;;;;;;;;;;5092578;28;20491;-62
2022/01/09 18:09:19;;;;;;;69.15;31.30;;;;;;;;;;5093048;28;20036;-60
2022/01/09 18:11:45;;;;;;;66.03;29.40;;;;;;;;;;5092361;28;20360;-61
2022/01/09 18:14:11;;;;;;;73.55;33.75;;;;;;;;;;5093015;28;20052;-61
2022/01/09 18:16:37;;;;;;;78.18;34.15;;;;;;;;;;5094285;28;20038;-60
2022/01/09 18:19:03;;;;;;;80.93;36.67;;;;;;;;;;5094291;28;20425;-60
2022/01/09 18:21:31;;;;;;;77.82;35.75;;;;;;;;;;5094357;28;20020;-62
2022/01/09 18:23:57;;;;;;;91.70;37.85;;;;;;;;;;5092899;28;20032;-60
2022/01/09 18:26:24;;;;;;;75.35;34.35;;;;;;;;;;5093459;28;20028;-60
2022/01/09 18:28:51;;;;;;;99.78;43.90;;;;;;;;;;5093897;28;20390;-60
2022/01/09 18:31:17;;;;;;;83.47;37.35;;;;;;;;;;5093472;28;20422;-61
2022/01/09 18:33:43;;;;;;;94.30;40.78;;;;;;;;;;5092403;28;20399;-61
2022/01/09 18:36:09;;;;;;;61.72;27.08;;;;;;;;;;5093596;28;20031;-60
2022/01/09 18:38:36;;;;;;;54.08;26.33;;;;;;;;;;5093545;28;20024;-61
2022/01/09 18:41:02;;;;;;;59.80;29.92;;;;;;;;;;5093239;28;20099;-61
2022/01/09 18:43:29;;;;;;;53.33;25.73;;;;;;;;;;5093749;28;20044;-61
2022/01/09 18:45:56;;;;;;;52.83;26.23;;;;;;;;;;5093777;28;20119;-60
2022/01/09 18:48:23;;;;;;;50.90;23.15;;;;;;;;;;5093530;28;20460;-60
2022/01/09 18:50:49;;;;;;;45.03;22.52;;;;;;;;;;5093504;28;20032;-60
2022/01/09 18:53:15;;;;;;;51.50;25.05;;;;;;;;;;5093086;28;20043;-60
2022/01/09 18:55:44;;;;;;;49.60;24.83;;;;;;;;;;5093164;28;20127;-61
2022/01/09 18:58:10;;;;;;;48.75;24.08;;;;;;;;;;5093303;28;20039;-63
2022/01/09 19:00:36;;;;;;;50.20;25.13;;;;;;;;;;5093365;28;20051;-61
2022/01/09 19:03:02;;;;;;;47.10;23.10;;;;;;;;;;5092841;28;20024;-62
2022/01/09 19:05:28;;;;;;;54.35;27.58;;;;;;;;;;5093321;28;20020;-62
2022/01/09 19:07:54;;;;;;;51.08;26.25;;;;;;;;;;5092824;28;20020;-60
2022/01/09 19:10:22;;;;;;;44.53;23.00;;;;;;;;;;5093219;28;20387;-60
2022/01/09 19:12:48;;;;;;;44.17;23.20;;;;;;;;;;5093050;28;20056;-60
2022/01/09 19:15:17;;;;;;;47.55;24.55;;;;;;;;;;5093179;28;20031;-59
2022/01/09 19:17:46;;;;;;;43.17;23.25;;;;;;;;;;5091082;28;20036;-60
2022/01/09 19:20:13;;;;;;;44.30;24.20;;;;;;;;;;5092613;28;20031;-60
2022/01/09 19:22:39;;;;;;;43.83;23.02;;;;;;;;;;5091487;28;20100;-60
2022/01/09 19:25:05;;;;;;;46.70;24.17;;;;;;;;;;5092959;28;20028;-60
2022/01/09 19:27:35;;;;;;;48.75;26.02;;;;;;;;;;5092503;28;20021;-60
2022/01/09 19:30:03;;;;;;;45.78;25.48;;;;;;;;;;5092714;28;20490;-60
2022/01/09 19:32:29;;;;;;;49.55;27.00;;;;;;;;;;5092756;28;20028;-61
2022/01/09 19:34:55;;;;;;;52.55;28.00;;;;;;;;;;5092196;28;20478;-60
2022/01/09 19:37:21;;;;;;;55.92;30.27;;;;;;;;;;5091915;28;20049;-60
2022/01/09 19:39:47;;;;;;;50.33;28.85;;;;;;;;;;5092505;28;20390;-60
2022/01/09 19:42:13;;;;;;;62.60;33.22;;;;;;;;;;5092544;28;20439;-61
2022/01/09 19:44:39;;;;;;;54.03;27.92;;;;;;;;;;5092048;28;20020;-61
2022/01/09 19:47:06;;;;;;;47.83;26.30;;;;;;;;;;5092606;28;20067;-61
2022/01/09 19:49:32;;;;;;;45.55;24.48;;;;;;;;;;5091383;28;20428;-60
2022/01/09 19:52:02;;;;;;;52.85;26.85;;;;;;;;;;5091818;28;20068;-60
2022/01/09 19:54:29;;;;;;;42.17;23.67;;;;;;;;;;5092027;28;20062;-61
2022/01/09 19:56:55;;;;;;;47.17;25.45;;;;;;;;;;5091143;28;20023;-60
2022/01/09 19:59:21;;;;;;;43.38;23.25;;;;;;;;;;5092019;28;20498;-61
2022/01/09 20:01:55;;;;;;;45.40;24.77;;;;;;;;;;5092179;28;20027;-60
2022/01/09 20:04:23;;;;;;;43.30;24.52;;;;;;;;;;5091497;28;20039;-62
2022/01/09 20:06:49;;;;;;;44.70;24.95;;;;;;;;;;5091527;28;20069;-60
2022/01/09 20:09:16;;;;;;;49.97;28.52;;;;;;;;;;5091056;28;20028;-60
2022/01/09 20:11:46;;;;;;;43.45;24.42;;;;;;;;;;5091499;28;20063;-60
2022/01/09 20:14:13;;;;;;;33.90;19.08;;;;;;;;;;5091368;28;20129;-61
2022/01/09 20:16:40;;;;;;;36.72;21.60;;;;;;;;;;5091703;28;20416;-60
2022/01/09 20:19:06;;;;;;;36.88;21.42;;;;;;;;;;5089974;28;20805;-60
2022/01/09 20:21:32;;;;;;;37.63;20.45;;;;;;;;;;5090092;28;20024;-61
2022/01/09 20:24:00;;;;;;;33.90;19.38;;;;;;;;;;5089851;28;20070;-60
2022/01/09 20:26:26;;;;;;;39.35;22.23;;;;;;;;;;5088179;28;20102;-60
2022/01/09 20:28:53;;;;;;;43.60;22.92;;;;;;;;;;5089383;28;20051;-61
2022/01/09 20:31:19;;;;;;;43.83;24.85;;;;;;;;;;5090269;28;20012;-61
2022/01/09 20:33:46;;;;;;;37.58;19.90;;;;;;;;;;5090671;28;20796;-61
2022/01/09 20:36:12;;;;;;;34.35;19.33;;;;;;;;;;5091359;28;20024;-61
2022/01/09 20:38:38;;;;;;;48.60;23.67;;;;;;;;;;5090687;28;20038;-61
2022/01/09 20:41:06;;;;;;;48.78;24.05;;;;;;;;;;5091298;28;20039;-61
2022/01/09 20:43:33;;;;;;;35.47;19.70;;;;;;;;;;5091453;28;20036;-60
2022/01/09 20:45:59;;;;;;;37.58;19.88;;;;;;;;;;5091084;28;20028;-61
2022/01/09 20:48:27;;;;;;;38.10;19.33;;;;;;;;;;5091280;28;20028;-61
2022/01/09 20:50:53;;;;;;;46.20;22.77;;;;;;;;;;5090962;28;20062;-61
2022/01/09 20:53:19;;;;;;;43.75;22.65;;;;;;;;;;5091036;28;20138;-61
2022/01/09 20:55:46;;;;;;;40.08;22.85;;;;;;;;;;5091309;28;20031;-61
2022/01/09 20:58:12;;;;;;;37.08;21.35;;;;;;;;;;5090955;28;20127;-61
2022/01/09 21:00:38;;;;;;;43.58;21.98;;;;;;;;;;5089755;28;20138;-61
2022/01/09 21:03:04;;;;;;;41.58;22.27;;;;;;;;;;5090582;28;20375;-61
2022/01/09 21:05:30;;;;;;;43.22;23.98;;;;;;;;;;5091563;28;20383;-62
2022/01/09 21:07:57;;;;;;;44.45;22.27;;;;;;;;;;5090950;28;20028;-61
2022/01/09 21:10:24;;;;;;;42.17;22.65;;;;;;;;;;5090399;28;20024;-60
2022/01/09 21:12:50;;;;;;;38.75;21.63;;;;;;;;;;5090134;28;20149;-60
2022/01/09 21:15:17;;;;;;;38.17;21.92;;;;;;;;;;5089556;28;20032;-61
2022/01/09 21:17:46;;;;;;;47.42;23.27;;;;;;;;;;5090485;28;20027;-61
2022/01/09 21:20:12;;;;;;;45.85;24.08;;;;;;;;;;5090880;28;20493;-61
2022/01/09 21:22:41;;;;;;;47.35;24.15;;;;;;;;;;5091059;28;20020;-60
2022/01/09 21:25:09;;;;;;;40.15;21.63;;;;;;;;;;5090820;28;20090;-60
2022/01/09 21:27:35;;;;;;;40.88;21.80;;;;;;;;;;5090856;28;20055;-61
2022/01/09 21:30:01;;;;;;;49.75;24.35;;;;;;;;;;5090933;28;20032;-61
2022/01/09 21:32:27;;;;;;;48.72;24.50;;;;;;;;;;5090561;28;20066;-60
2022/01/09 21:34:53;;;;;;;43.13;22.40;;;;;;;;;;5089712;28;20047;-60
2022/01/09 21:37:19;;;;;;;44.33;23.75;;;;;;;;;;5090444;28;20044;-60
2022/01/09 21:39:45;;;;;;;58.58;30.27;;;;;;;;;;5090683;28;20507;-59
2022/01/09 21:42:11;;;;;;;48.78;26.15;;;;;;;;;;5090388;28;20503;-59
2022/01/09 21:44:39;;;;;;;43.15;23.63;;;;;;;;;;5090647;28;20107;-59
2022/01/09 21:47:06;;;;;;;41.75;21.33;;;;;;;;;;5089098;28;20539;-60
2022/01/09 21:49:32;;;;;;;49.55;25.08;;;;;;;;;;5090475;28;20028;-60
2022/01/09 21:52:03;;;;;;;57.70;26.98;;;;;;;;;;5089941;28;20028;-60
2022/01/09 21:54:29;;;;;;;52.72;24.77;;;;;;;;;;5088728;28;20584;-59
2022/01/09 21:56:55;;;;;;;45.83;23.30;;;;;;;;;;5090558;28;20115;-60
2022/01/09 21:59:21;;;;;;;48.30;24.98;;;;;;;;;;5090098;28;20059;-60
2022/01/09 22:01:47;;;;;;;55.13;27.85;;;;;;;;;;5090083;28;20416;-60
2022/01/09 22:04:13;;;;;;;48.63;25.23;;;;;;;;;;5090484;28;20060;-60
2022/01/09 22:06:41;;;;;;;56.75;28.25;;;;;;;;;;5090470;28;20476;-60
2022/01/09 22:09:07;;;;;;;50.28;25.92;;;;;;;;;;5090255;28;20712;-61
2022/01/09 22:11:33;;;;;;;67.07;32.95;;;;;;;;;;5090017;28;20039;-61
2022/01/09 22:13:59;;;;;;;46.53;25.65;;;;;;;;;;5090173;28;20399;-60
2022/01/09 22:16:25;;;;;;;54.55;26.92;;;;;;;;;;5090585;28;20529;-60
2022/01/09 22:18:51;;;;;;;50.35;27.17;;;;;;;;;;5089645;28;20058;-59
2022/01/09 22:21:17;;;;;;;55.03;29.13;;;;;;;;;;5090921;28;20506;-59
2022/01/09 22:23:43;;;;;;;62.13;31.92;;;;;;;;;;5092470;28;20483;-59
2022/01/09 22:26:09;;;;;;;61.60;31.42;;;;;;;;;;5092207;28;20020;-59
2022/01/09 22:28:35;;;;;;;58.35;30.38;;;;;;;;;;5092831;28;20024;-59
2022/01/09 22:31:01;;;;;;;63.92;33.88;;;;;;;;;;5091443;28;20092;-59
2022/01/09 22:33:27;;;;;;;55.53;30.50;;;;;;;;;;5092451;28;20146;-59
2022/01/09 22:35:54;;;;;;;57.78;31.83;;;;;;;;;;5093261;28;20031;-60
2022/01/09 22:38:20;;;;;;;55.40;27.52;;;;;;;;;;5094231;28;20036;-60
2022/01/09 22:40:46;;;;;;;57.10;29.17;;;;;;;;;;5094177;28;20023;-60
2022/01/09 22:43:13;;;;;;;51.42;27.80;;;;;;;;;;5093437;28;20035;-60
2022/01/09 22:45:44;;;;;;;53.70;27.35;;;;;;;;;;5093556;28;20024;-60
2022/01/09 22:48:10;;;;;;;42.38;20.92;;;;;;;;;;5093935;28;20031;-60
2022/01/09 22:50:36;;;;;;;47.25;23.98;;;;;;;;;;5093568;28;20467;-58
2022/01/09 22:53:03;;;;;;;48.17;24.75;;;;;;;;;;5093444;28;20489;-59
2022/01/09 22:55:29;;;;;;;52.85;27.30;;;;;;;;;;5093270;28;20420;-59
2022/01/09 22:57:55;;;;;;;47.42;24.48;;;;;;;;;;5092276;28;20016;-59
2022/01/09 23:00:33;;;;;;;50.72;25.55;;;;;;;;;;5092516;28;20032;-59
2022/01/09 23:02:59;;;;;;;45.97;23.45;;;;;;;;;;5092762;28;20035;-60
2022/01/09 23:05:25;;;;;;;48.33;23.98;;;;;;;;;;5091956;28;20425;-61
2022/01/09 23:07:51;;;;;;;45.78;23.70;;;;;;;;;;5093007;28;20482;-61
2022/01/09 23:10:17;;;;;;;45.00;24.25;;;;;;;;;;5091624;28;20373;-60
2022/01/09 23:12:43;;;;;;;50.72;24.38;;;;;;;;;;5092243;28;20498;-60
2022/01/09 23:15:10;;;;;;;48.08;23.55;;;;;;;;;;5092444;28;20107;-61
2022/01/09 23:17:36;;;;;;;44.75;22.33;;;;;;;;;;5093018;28;20028;-61
